Time;durP1;ratioP1;P1;durP2;ratioP2;P2;SDS_P1;SDS_P2;PMS_P1;PMS_P2;Temp;Humidity;BMP_temperature;BMP_pressure;BME280_temperature;BME280_humidity;BME280_pressure;Samples;Min_cycle;Max_cycle;Signal;HPM_P1;HPM_P2
2023/06/12 00:02:07;;;;;;;9.85;4.53;;;17.60;99.90;;;;;;5093534;28;20047;-64
2023/06/12 00:04:33;;;;;;;8.07;4.25;;;17.70;99.90;;;;;;5096788;28;20111;-64
2023/06/12 00:07:01;;;;;;;8.45;4.20;;;17.60;99.90;;;;;;5095695;28;20055;-63
2023/06/12 00:09:28;;;;;;;7.60;5.13;;;17.60;99.90;;;;;;5096351;28;20107;-63
2023/06/12 00:11:54;;;;;;;9.10;4.82;;;17.60;99.90;;;;;;5096408;28;20020;-64
2023/06/12 00:14:20;;;;;;;7.93;4.30;;;17.60;99.90;;;;;;5096477;28;20031;-64
2023/06/12 00:16:48;;;;;;;8.45;4.30;;;17.60;99.90;;;;;;5096276;28;20031;-63
2023/06/12 00:19:15;;;;;;;13.20;5.05;;;17.50;99.90;;;;;;5096359;28;20024;-63
2023/06/12 00:21:41;;;;;;;15.00;5.38;;;17.50;99.90;;;;;;5096342;28;20028;-63
2023/06/12 00:24:08;;;;;;;11.85;4.80;;;17.50;99.90;;;;;;5096421;28;20048;-63
2023/06/12 00:26:35;;;;;;;8.55;4.93;;;17.50;99.90;;;;;;5096055;28;20081;-63
2023/06/12 00:29:01;;;;;;;6.32;4.47;;;17.50;99.90;;;;;;5094856;28;20039;-63
2023/06/12 00:31:28;;;;;;;12.02;4.15;;;17.40;99.90;;;;;;5094703;28;20028;-63
2023/06/12 00:33:54;;;;;;;10.25;4.80;;;17.50;99.90;;;;;;5094656;28;20031;-63
2023/06/12 00:36:20;;;;;;;12.00;4.97;;;17.40;99.90;;;;;;5096126;28;20032;-63
2023/06/12 00:38:46;;;;;;;9.05;3.90;;;17.50;99.90;;;;;;5094376;28;20040;-64
2023/06/12 00:41:12;;;;;;;13.07;4.40;;;17.50;99.90;;;;;;5095854;28;20039;-64
2023/06/12 00:43:39;;;;;;;7.47;4.65;;;17.50;99.90;;;;;;5094684;28;20170;-64
2023/06/12 00:46:06;;;;;;;12.07;4.53;;;17.40;99.90;;;;;;5095788;28;20503;-64
2023/06/12 00:48:32;;;;;;;8.60;4.13;;;17.40;99.90;;;;;;5094546;28;20039;-63
2023/06/12 00:50:59;;;;;;;13.18;4.03;;;17.40;99.90;;;;;;5094385;28;20028;-64
2023/06/12 00:53:26;;;;;;;6.47;3.47;;;17.40;99.90;;;;;;5095698;28;20065;-64
2023/06/12 00:55:53;;;;;;;10.30;4.00;;;17.50;99.90;;;;;;5094358;28;20073;-64
2023/06/12 00:58:20;;;;;;;9.57;3.42;;;17.40;99.90;;;;;;5094300;28;20032;-63
2023/06/12 01:00:48;;;;;;;8.77;4.00;;;17.40;99.90;;;;;;5094514;28;20024;-64
2023/06/12 01:03:14;;;;;;;7.82;4.03;;;17.50;99.90;;;;;;5094208;28;20032;-64
2023/06/12 01:05:43;;;;;;;8.05;3.40;;;17.40;99.90;;;;;;5095670;28;20024;-64
2023/06/12 01:08:52;;;;;;;9.18;4.30;;;17.50;99.90;;;;;;5095464;28;20031;-64
2023/06/12 01:11:18;;;;;;;15.93;4.03;;;17.40;99.90;;;;;;5032389;28;20415;-64
2023/06/12 01:13:44;;;;;;;9.02;4.25;;;17.40;99.90;;;;;;5082484;28;20036;-64
2023/06/12 01:16:10;;;;;;;11.75;4.13;;;17.40;99.90;;;;;;5095604;28;20028;-64
2023/06/12 01:18:36;;;;;;;6.72;4.32;;;17.40;99.90;;;;;;5095099;28;20032;-63
2023/06/12 01:21:13;;;;;;;7.15;3.67;;;17.30;99.90;;;;;;5093967;28;20031;-63
2023/06/12 01:23:58;;;;;;;7.75;4.35;;;17.20;99.90;;;;;;5095259;28;20149;-64
2023/06/12 01:26:45;;;;;;;8.48;3.33;;;17.20;99.90;;;;;;5093711;28;20432;-63
2023/06/12 01:29:28;;;;;;;11.98;3.67;;;17.30;99.90;;;;;;5093750;28;20467;-63
2023/06/12 01:32:14;;;;;;;8.25;4.03;;;17.30;99.90;;;;;;5093769;28;20032;-63
2023/06/12 01:34:50;;;;;;;11.38;3.97;;;17.30;99.90;;;;;;5093664;28;20086;-63
2023/06/12 01:37:43;;;;;;;12.88;4.15;;;17.30;99.90;;;;;;5093556;28;20045;-63
2023/06/12 01:40:16;;;;;;;5.22;4.20;;;17.30;99.90;;;;;;5093560;28;20028;-64
2023/06/12 01:42:43;;;;;;;7.22;3.97;;;17.30;99.90;;;;;;5093517;28;20036;-64
2023/06/12 01:45:10;;;;;;;5.18;3.97;;;17.30;99.90;;;;;;5094749;28;20081;-64
2023/06/12 01:47:36;;;;;;;11.48;4.70;;;17.30;99.90;;;;;;5094887;28;20028;-63
2023/06/12 01:50:06;;;;;;;8.13;4.45;;;17.30;99.90;;;;;;5094581;28;20781;-63
2023/06/12 01:52:34;;;;;;;;;;;17.20;99.90;;;;;;5093937;28;20028;-63
2023/06/12 01:55:02;;;;;;;10.85;4.03;;;17.20;99.90;;;;;;5110264;28;20285;-63
2023/06/12 01:57:30;;;;;;;7.07;4.25;;;17.20;99.90;;;;;;5093398;28;20040;-63
2023/06/12 01:59:56;;;;;;;6.80;4.13;;;17.30;99.90;;;;;;5093245;28;20501;-63
2023/06/12 02:02:24;;;;;;;9.25;3.70;;;17.20;99.90;;;;;;5093172;28;20028;-63
2023/06/12 02:04:50;;;;;;;7.03;3.90;;;17.20;99.90;;;;;;5093400;28;20028;-63
2023/06/12 02:07:16;;;;;;;7.93;4.40;;;17.20;99.90;;;;;;5094524;28;20430;-63
2023/06/12 02:09:42;;;;;;;8.98;4.50;;;17.20;99.90;;;;;;5094443;28;20107;-63
2023/06/12 02:12:09;;;;;;;10.25;4.40;;;17.20;99.90;;;;;;5094643;28;20016;-63
2023/06/12 02:14:36;;;;;;;7.45;4.45;;;17.20;99.90;;;;;;5093164;28;20107;-64
2023/06/12 02:17:02;;;;;;;8.77;4.00;;;17.20;99.90;;;;;;5093103;28;20052;-63
2023/06/12 02:19:29;;;;;;;8.10;4.00;;;17.20;99.90;;;;;;5093208;28;20035;-63
2023/06/12 02:21:56;;;;;;;6.03;3.95;;;17.20;99.90;;;;;;5093214;28;20020;-63
2023/06/12 02:24:29;;;;;;;11.38;4.10;;;17.20;99.90;;;;;;5092788;28;20111;-63
2023/06/12 02:26:56;;;;;;;10.07;4.10;;;17.20;99.90;;;;;;5094328;28;20458;-63
2023/06/12 02:29:22;;;;;;;7.07;3.97;;;17.20;99.90;;;;;;5093056;28;20392;-63
2023/06/12 02:31:53;;;;;;;12.93;4.82;;;17.20;99.90;;;;;;5096356;28;20039;-63
2023/06/12 02:34:19;;;;;;;20.20;6.00;;;17.30;99.90;;;;;;5097249;28;20024;-63
2023/06/12 02:36:46;;;;;;;9.73;4.30;;;17.20;99.90;;;;;;5096810;28;20856;-63
2023/06/12 02:39:22;;;;;;;7.32;4.28;;;17.20;99.90;;;;;;5097027;28;20473;-63
2023/06/12 02:41:49;;;;;;;13.00;4.65;;;17.20;99.90;;;;;;5096874;28;20050;-64
2023/06/12 02:44:15;;;;;;;8.10;4.15;;;17.20;99.90;;;;;;5096756;28;20036;-63
2023/06/12 02:46:54;;;;;;;7.10;3.85;;;17.20;99.90;;;;;;5098146;28;20070;-63
2023/06/12 02:49:26;;;;;;;11.65;4.93;;;17.20;99.90;;;;;;5096641;28;20054;-63
2023/06/12 02:51:52;;;;;;;10.57;3.95;;;17.20;99.90;;;;;;5098034;28;20023;-63
2023/06/12 02:54:21;;;;;;;12.98;5.00;;;17.20;99.90;;;;;;5096613;28;20030;-63
2023/06/12 02:56:48;;;;;;;8.80;5.45;;;17.10;99.90;;;;;;5096712;28;20504;-63
2023/06/12 02:59:16;;;;;;;10.40;4.60;;;17.20;99.90;;;;;;5096583;28;20039;-63
2023/06/12 03:01:45;;;;;;;8.35;4.50;;;17.00;99.90;;;;;;5097991;28;20027;-63
2023/06/12 03:04:20;;;;;;;7.45;4.53;;;17.10;99.90;;;;;;5096481;28;20543;-63
2023/06/12 03:06:51;;;;;;;7.90;4.70;;;17.10;99.90;;;;;;5097599;28;20103;-63
2023/06/12 03:09:18;;;;;;;7.32;4.38;;;17.10;99.90;;;;;;5096330;28;20439;-63
2023/06/12 03:11:47;;;;;;;8.48;4.60;;;17.20;99.90;;;;;;5097549;28;20028;-63
2023/06/12 03:14:13;;;;;;;10.05;4.80;;;17.20;99.90;;;;;;5096264;28;20035;-63
2023/06/12 03:16:40;;;;;;;6.82;5.00;;;17.20;99.90;;;;;;5096436;28;20032;-63
2023/06/12 03:19:06;;;;;;;6.47;4.50;;;17.20;99.90;;;;;;5096390;28;20028;-63
2023/06/12 03:21:32;;;;;;;9.18;5.80;;;17.20;99.90;;;;;;5096113;28;20047;-64
2023/06/12 03:23:59;;;;;;;7.82;5.30;;;17.20;99.90;;;;;;5097560;28;20157;-64
2023/06/12 03:26:27;;;;;;;11.70;5.47;;;17.20;99.90;;;;;;5096060;28;20069;-64
2023/06/12 03:28:53;;;;;;;9.52;5.55;;;17.30;99.90;;;;;;5096063;28;20073;-64
2023/06/12 03:31:20;;;;;;;12.60;5.38;;;17.20;99.90;;;;;;5096186;28;20117;-64
2023/06/12 03:33:46;;;;;;;9.95;5.28;;;17.20;99.90;;;;;;5095900;28;20380;-63
2023/06/12 03:36:16;;;;;;;10.68;5.72;;;17.30;99.90;;;;;;5095821;28;20085;-63
2023/06/12 03:38:44;;;;;;;10.05;5.45;;;17.30;99.90;;;;;;5095809;28;20052;-64
2023/06/12 03:41:11;;;;;;;10.75;5.72;;;17.20;99.90;;;;;;5095407;28;20127;-64
2023/06/12 03:43:38;;;;;;;10.23;6.22;;;17.20;99.90;;;;;;5094864;28;20122;-63
2023/06/12 03:46:05;;;;;;;10.23;6.72;;;17.30;99.90;;;;;;5095868;28;20024;-63
2023/06/12 03:48:31;;;;;;;9.95;5.60;;;17.30;99.90;;;;;;5095584;28;20031;-63
2023/06/12 03:50:57;;;;;;;8.63;5.40;;;17.30;99.90;;;;;;5095558;28;20063;-63
2023/06/12 03:53:23;;;;;;;10.85;6.78;;;17.20;99.90;;;;;;5095649;28;20035;-64
2023/06/12 03:55:49;;;;;;;9.65;6.03;;;17.30;99.90;;;;;;5095567;28;20120;-63
2023/06/12 03:58:16;;;;;;;8.98;6.03;;;17.20;99.90;;;;;;5095472;28;20028;-64
2023/06/12 04:00:45;;;;;;;8.80;5.70;;;17.20;99.90;;;;;;5095072;28;20046;-63
2023/06/12 04:03:14;;;;;;;11.68;6.63;;;17.20;99.90;;;;;;5095076;28;20024;-63
2023/06/12 04:05:42;;;;;;;8.40;6.32;;;17.10;99.90;;;;;;5095360;28;20161;-64
2023/06/12 04:08:08;;;;;;;13.15;8.68;;;17.20;99.90;;;;;;5096570;28;20389;-64
2023/06/12 04:10:35;;;;;;;8.13;5.95;;;17.20;99.90;;;;;;5096287;28;20504;-63
2023/06/12 04:13:02;;;;;;;13.57;7.32;;;17.20;99.90;;;;;;5095133;28;20035;-63
2023/06/12 04:15:29;;;;;;;12.13;6.72;;;17.30;99.90;;;;;;5095115;28;20390;-63
2023/06/12 04:17:57;;;;;;;12.15;6.65;;;17.30;99.90;;;;;;5094904;28;20028;-63
2023/06/12 04:20:26;;;;;;;16.58;6.85;;;17.30;99.90;;;;;;5095105;28;20028;-63
2023/06/12 04:22:56;;;;;;;11.35;6.13;;;17.20;99.90;;;;;;5094788;28;20054;-63
2023/06/12 04:25:26;;;;;;;9.77;4.60;;;17.20;99.90;;;;;;5094853;28;20057;-63
2023/06/12 04:27:52;;;;;;;15.35;5.30;;;17.20;99.90;;;;;;5096327;28;20035;-63
2023/06/12 04:30:21;;;;;;;5.97;3.17;;;17.20;99.90;;;;;;5094466;28;20516;-63
2023/06/12 04:32:48;;;;;;;11.25;4.90;;;17.10;99.90;;;;;;5094860;28;20020;-63
2023/06/12 04:35:19;;;;;;;6.72;4.60;;;17.10;99.90;;;;;;5094941;28;20024;-63
2023/06/12 04:37:48;;;;;;;11.60;4.75;;;16.90;99.90;;;;;;5094358;28;20044;-63
2023/06/12 04:40:15;;;;;;;7.00;4.03;;;17.00;99.90;;;;;;5094703;28;20032;-63
2023/06/12 04:42:43;;;;;;;10.40;4.95;;;17.00;99.90;;;;;;5094508;28;20116;-63
2023/06/12 04:45:13;;;;;;;9.82;4.38;;;16.90;99.90;;;;;;5094467;28;20123;-63
2023/06/12 04:47:41;;;;;;;7.18;4.30;;;16.80;99.90;;;;;;5094562;28;20066;-63
2023/06/12 04:50:09;;;;;;;8.18;4.78;;;17.00;99.90;;;;;;5094353;28;20024;-63
2023/06/12 04:52:36;;;;;;;9.85;3.95;;;17.00;99.90;;;;;;5094255;28;20028;-63
2023/06/12 04:55:03;;;;;;;10.02;5.00;;;17.00;99.90;;;;;;5094076;28;20024;-63
2023/06/12 04:57:29;;;;;;;10.52;4.70;;;17.00;99.90;;;;;;5094410;28;20092;-63
2023/06/12 04:59:56;;;;;;;9.40;4.38;;;16.80;99.90;;;;;;5094305;28;20077;-62
2023/06/12 05:02:22;;;;;;;8.77;4.20;;;16.90;99.90;;;;;;5095586;28;20225;-63
2023/06/12 05:04:48;;;;;;;9.43;4.40;;;16.80;99.90;;;;;;5095435;28;20362;-63
2023/06/12 05:07:16;;;;;;;11.57;5.47;;;16.90;99.90;;;;;;5093826;28;20066;-63
2023/06/12 05:09:46;;;;;;;11.25;4.22;;;16.90;99.90;;;;;;5093764;28;20038;-63
2023/06/12 05:12:12;;;;;;;8.30;4.30;;;16.70;99.90;;;;;;5094093;28;20032;-63
2023/06/12 05:14:42;;;;;;;13.00;4.93;;;16.70;99.90;;;;;;5093715;28;20039;-63
2023/06/12 05:17:09;;;;;;;13.25;3.97;;;16.70;99.90;;;;;;5094563;28;20039;-63
2023/06/12 05:19:38;;;;;;;8.85;4.63;;;16.70;99.90;;;;;;5094975;28;20537;-63
2023/06/12 05:22:05;;;;;;;8.75;4.45;;;16.50;99.90;;;;;;5091459;28;20039;-63
2023/06/12 05:24:33;;;;;;;7.88;4.65;;;16.60;99.90;;;;;;5095314;28;20032;-63
2023/06/12 05:27:00;;;;;;;11.70;5.18;;;16.60;99.90;;;;;;5095612;28;20039;-64
2023/06/12 05:29:26;;;;;;;10.35;5.00;;;16.70;99.90;;;;;;5094161;28;20036;-63
2023/06/12 05:31:53;;;;;;;9.52;5.57;;;16.80;99.90;;;;;;5094191;28;20040;-63
2023/06/12 05:34:20;;;;;;;7.80;4.05;;;16.70;99.90;;;;;;5093610;28;20028;-63
2023/06/12 05:36:46;;;;;;;11.73;4.03;;;16.60;99.90;;;;;;5092880;28;20447;-63
2023/06/12 05:39:18;;;;;;;5.82;3.63;;;16.50;99.90;;;;;;5092767;28;20044;-63
2023/06/12 05:41:45;;;;;;;6.05;3.22;;;16.40;99.90;;;;;;5094640;28;20461;-63
2023/06/12 05:44:11;;;;;;;12.85;4.13;;;16.30;99.90;;;;;;5088850;28;20032;-63
2023/06/12 05:46:38;;;;;;;10.23;3.63;;;16.30;99.90;;;;;;5092228;28;20476;-63
2023/06/12 05:49:04;;;;;;;6.57;3.50;;;16.30;99.90;;;;;;5093085;28;20382;-63
2023/06/12 05:51:31;;;;;;;10.65;5.10;;;16.30;99.90;;;;;;5091790;28;20496;-63
2023/06/12 05:54:06;;;;;;;16.27;4.10;;;16.40;99.90;;;;;;5091675;28;20023;-63
2023/06/12 05:56:34;;;;;;;9.57;4.63;;;16.50;99.90;;;;;;5092956;28;20028;-63
2023/06/12 05:59:00;;;;;;;8.80;3.85;;;16.40;99.90;;;;;;5092552;28;20028;-63
2023/06/12 06:01:27;;;;;;;7.15;4.85;;;16.40;99.90;;;;;;5088818;28;20140;-63
2023/06/12 06:03:55;;;;;;;6.38;4.38;;;16.40;99.90;;;;;;5088521;28;20366;-63
2023/06/12 06:06:22;;;;;;;14.93;5.30;;;16.30;99.90;;;;;;5086412;28;20412;-63
2023/06/12 06:08:49;;;;;;;8.32;4.68;;;16.10;99.90;;;;;;5077075;28;20073;-63
2023/06/12 06:11:20;;;;;;;8.18;5.00;;;16.10;99.90;;;;;;5092694;28;20107;-63
2023/06/12 06:13:46;;;;;;;;;;;16.20;99.90;;;;;;5092971;28;20021;-63
2023/06/12 06:16:21;;;;;;;11.80;5.28;;;16.20;99.90;;;;;;5091839;28;19973;-63
2023/06/12 06:18:47;;;;;;;8.27;5.57;;;16.20;99.90;;;;;;5093677;28;20020;-63
2023/06/12 06:21:16;;;;;;;10.05;6.47;;;16.30;99.90;;;;;;5126613;28;20482;-62
2023/06/12 06:23:42;;;;;;;8.48;5.65;;;16.40;99.90;;;;;;5093936;28;20032;-63
2023/06/12 06:26:09;;;;;;;5.35;4.82;;;16.40;99.90;;;;;;5091835;28;20393;-63
2023/06/12 06:28:36;;;;;;;9.38;4.55;;;16.40;99.90;;;;;;5101840;28;20092;-63
2023/06/12 06:31:06;;;;;;;12.57;5.55;;;16.50;99.90;;;;;;5072368;28;20033;-63
2023/06/12 06:33:36;;;;;;;10.77;4.70;;;16.50;99.90;;;;;;5073639;28;20028;-63
2023/06/12 06:36:02;;;;;;;13.52;8.50;;;16.30;99.90;;;;;;5089469;28;20590;-63
2023/06/12 06:38:30;;;;;;;10.48;5.60;;;16.30;99.90;;;;;;5092464;28;20066;-62
2023/06/12 06:40:56;;;;;;;10.07;6.65;;;16.40;99.90;;;;;;5091634;28;20123;-63
2023/06/12 06:43:22;;;;;;;8.52;5.18;;;16.40;99.90;;;;;;5119640;28;20123;-63
2023/06/12 06:45:55;;;;;;;6.80;4.15;;;16.40;99.90;;;;;;5094722;28;20134;-61
2023/06/12 06:48:21;;;;;;;13.48;5.97;;;16.50;99.90;;;;;;5092395;28;20112;-63
2023/06/12 06:50:47;;;;;;;5.72;4.38;;;16.50;99.90;;;;;;5082307;28;20115;-62
2023/06/12 06:53:13;;;;;;;9.48;4.57;;;16.50;99.90;;;;;;5092301;28;20032;-62
2023/06/12 06:55:42;;;;;;;9.40;4.20;;;16.60;99.90;;;;;;5091334;28;20477;-62
2023/06/12 06:58:10;;;;;;;11.50;4.82;;;16.70;99.90;;;;;;5092636;28;20028;-62
2023/06/12 07:00:36;;;;;;;10.35;6.40;;;16.60;99.90;;;;;;5090859;28;20393;-63
2023/06/12 07:03:03;;;;;;;12.00;6.10;;;16.60;99.90;;;;;;5091333;28;20032;-63
2023/06/12 07:05:29;;;;;;;4.88;4.18;;;16.60;99.90;;;;;;5091412;28;20045;-62
2023/06/12 07:07:55;;;;;;;5.30;3.95;;;16.60;99.90;;;;;;5092136;28;20077;-63
2023/06/12 07:10:22;;;;;;;6.57;4.13;;;16.70;99.90;;;;;;5091879;28;20469;-62
2023/06/12 07:12:56;;;;;;;6.78;4.50;;;16.60;99.90;;;;;;5090657;28;20038;-63
2023/06/12 07:15:27;;;;;;;9.73;4.40;;;16.60;99.90;;;;;;5125156;28;20547;-63
2023/06/12 07:17:57;;;;;;;16.58;5.13;;;16.60;99.90;;;;;;5094881;28;20035;-63
2023/06/12 07:20:24;;;;;;;7.82;4.45;;;16.70;99.90;;;;;;5096086;28;20370;-63
2023/06/12 07:22:50;;;;;;;9.30;4.28;;;16.70;99.90;;;;;;5095505;28;20020;-63
2023/06/12 07:25:16;;;;;;;10.52;4.68;;;16.70;99.90;;;;;;5097715;28;20065;-63
2023/06/12 07:27:42;;;;;;;13.02;5.38;;;16.70;99.90;;;;;;5095369;28;20135;-66
2023/06/12 07:30:11;;;;;;;14.63;5.25;;;16.70;99.90;;;;;;5096209;28;20036;-66
2023/06/12 07:32:37;;;;;;;16.65;6.95;;;16.60;99.90;;;;;;5096529;28;20030;-66
2023/06/12 07:35:05;;;;;;;14.32;9.07;;;16.70;99.90;;;;;;5096749;28;20473;-66
2023/06/12 07:37:35;;;;;;;11.63;8.27;;;16.60;99.90;;;;;;5094134;28;20131;-66
2023/06/12 07:40:04;;;;;;;11.90;7.75;;;16.70;99.90;;;;;;5129916;27;20524;-66
2023/06/12 07:42:32;;;;;;;10.77;7.95;;;16.70;99.90;;;;;;5094824;28;20126;-66
2023/06/12 07:44:58;;;;;;;11.23;6.72;;;16.70;99.90;;;;;;5094954;28;20102;-66
2023/06/12 07:47:24;;;;;;;12.85;7.95;;;16.70;99.90;;;;;;5096799;28;20074;-66
2023/06/12 07:49:53;;;;;;;13.75;8.50;;;16.60;99.90;;;;;;5096181;28;20032;-66
2023/06/12 07:52:25;;;;;;;17.15;9.10;;;16.80;99.90;;;;;;5097258;28;20050;-66
2023/06/12 07:54:51;;;;;;;20.60;8.75;;;16.80;99.90;;;;;;5095748;28;20020;-66
2023/06/12 07:57:18;;;;;;;21.10;9.75;;;16.90;99.90;;;;;;5093394;28;20028;-66
2023/06/12 07:59:48;;;;;;;20.17;9.95;;;16.90;99.90;;;;;;5095588;28;20062;-66
2023/06/12 08:02:14;;;;;;;20.15;7.63;;;16.90;99.90;;;;;;5093023;28;20127;-65
2023/06/12 08:04:42;;;;;;;17.67;7.88;;;17.00;99.90;;;;;;5096662;28;20020;-66
2023/06/12 08:07:12;;;;;;;24.15;8.55;;;16.90;99.90;;;;;;5094951;28;20404;-66
2023/06/12 08:09:40;;;;;;;18.15;7.82;;;16.90;99.90;;;;;;5095729;28;20028;-66
2023/06/12 08:12:10;;;;;;;16.00;9.82;;;16.90;99.90;;;;;;5095802;28;20093;-66
2023/06/12 08:14:38;;;;;;;14.82;8.27;;;16.90;99.90;;;;;;5091322;28;20474;-66
2023/06/12 08:17:04;;;;;;;13.88;7.88;;;16.90;99.90;;;;;;5092535;28;20393;-66
2023/06/12 08:19:32;;;;;;;12.10;6.40;;;16.80;99.90;;;;;;5094803;28;20122;-66
2023/06/12 08:22:00;;;;;;;8.02;5.38;;;16.90;99.90;;;;;;5094874;28;20024;-66
2023/06/12 08:24:29;;;;;;;4.20;3.80;;;16.90;99.90;;;;;;5094232;28;20052;-66
2023/06/12 08:26:57;;;;;;;4.53;4.13;;;16.90;99.90;;;;;;5094159;28;20032;-66
2023/06/12 08:29:23;;;;;;;5.53;4.50;;;16.80;99.90;;;;;;5093098;28;20154;-66
2023/06/12 08:31:49;;;;;;;5.80;4.47;;;16.80;99.90;;;;;;5096356;28;20454;-66
2023/06/12 08:34:15;;;;;;;4.95;4.10;;;16.90;99.90;;;;;;5095401;28;20020;-66
2023/06/12 08:36:41;;;;;;;3.90;3.50;;;16.90;99.90;;;;;;5094640;28;20035;-66
2023/06/12 08:39:09;;;;;;;4.03;3.55;;;16.80;99.90;;;;;;5095176;28;20470;-66
2023/06/12 08:41:44;;;;;;;7.32;4.25;;;16.70;99.90;;;;;;5094933;28;20111;-66
2023/06/12 08:44:11;;;;;;;5.95;3.47;;;16.60;99.90;;;;;;5094835;28;20058;-66
2023/06/12 08:46:41;;;;;;;;;;;16.70;99.90;;;;;;5095548;28;20089;-66
2023/06/12 08:49:09;;;;;;;4.32;3.50;;;16.60;99.90;;;;;;5092622;28;19912;-66
2023/06/12 08:51:37;;;;;;;3.60;2.80;;;16.70;99.90;;;;;;5093445;28;20032;-66
2023/06/12 08:54:07;;;;;;;3.28;2.00;;;16.70;99.90;;;;;;5076268;28;20024;-66
2023/06/12 08:56:34;;;;;;;2.85;2.53;;;16.70;99.90;;;;;;5078615;28;20478;-66
2023/06/12 08:59:03;;;;;;;5.38;2.42;;;16.70;99.90;;;;;;5075705;28;20056;-66
2023/06/12 09:01:30;;;;;;;6.68;2.13;;;16.70;99.90;;;;;;5075925;28;20043;-66
2023/06/12 09:04:00;;;;;;;2.03;1.83;;;16.70;99.90;;;;;;5075699;28;20032;-66
2023/06/12 09:06:29;;;;;;;3.03;1.83;;;16.70;99.90;;;;;;5074367;28;20029;-66
2023/06/12 09:08:55;;;;;;;4.68;2.53;;;16.70;99.90;;;;;;5075866;28;20032;-65
2023/06/12 09:11:21;;;;;;;5.63;2.53;;;16.80;99.90;;;;;;5095180;28;20035;-66
2023/06/12 09:13:50;;;;;;;7.78;3.17;;;16.80;99.90;;;;;;5095993;28;20062;-66
2023/06/12 09:16:17;;;;;;;4.00;3.17;;;16.80;99.90;;;;;;5095346;28;20032;-66
2023/06/12 09:18:53;;;;;;;6.57;3.80;;;16.90;99.90;;;;;;5095584;28;20039;-65
2023/06/12 09:21:25;;;;;;;5.07;4.00;;;17.00;99.90;;;;;;5094895;28;20059;-65
2023/06/12 09:23:55;;;;;;;9.15;4.45;;;17.00;99.90;;;;;;5094664;28;20028;-66
2023/06/12 09:26:22;;;;;;;7.43;4.15;;;17.00;99.90;;;;;;5095072;28;20024;-66
2023/06/12 09:28:52;;;;;;;6.30;5.40;;;17.20;99.90;;;;;;5094969;28;20385;-66
2023/06/12 09:31:22;;;;;;;10.57;6.05;;;17.30;99.90;;;;;;5094808;28;20359;-66
2023/06/12 09:33:53;;;;;;;13.18;6.93;;;17.30;99.90;;;;;;5094967;28;20043;-67
2023/06/12 09:36:20;;;;;;;10.70;6.88;;;17.30;99.90;;;;;;5094535;28;20058;-66
2023/06/12 09:38:49;;;;;;;14.38;8.18;;;17.30;99.90;;;;;;5094397;28;20451;-66
2023/06/12 09:41:20;;;;;;;9.38;6.75;;;17.40;99.90;;;;;;5094695;28;20026;-66
2023/06/12 09:43:46;;;;;;;17.65;9.43;;;17.50;99.90;;;;;;5094208;28;20024;-66
2023/06/12 09:46:12;;;;;;;14.75;7.82;;;17.50;99.90;;;;;;5092492;28;20031;-66
2023/06/12 09:48:39;;;;;;;16.48;8.40;;;17.40;99.90;;;;;;5094494;28;20024;-66
2023/06/12 09:51:07;;;;;;;15.23;9.70;;;17.40;99.90;;;;;;5093830;28;20020;-66
2023/06/12 09:53:38;;;;;;;13.00;7.78;;;17.40;99.90;;;;;;5094005;28;20036;-67
2023/06/12 09:56:07;;;;;;;;;;;17.50;99.90;;;;;;5094580;28;20032;-66
2023/06/12 09:58:38;;;;;;;14.90;8.50;;;17.40;99.90;;;;;;5093216;28;19958;-66
2023/06/12 10:01:07;;;;;;;15.25;8.35;;;17.30;99.90;;;;;;5090394;28;20032;-66
2023/06/12 10:03:39;;;;;;;13.27;8.80;;;17.20;99.90;;;;;;5092575;28;20071;-66
2023/06/12 10:06:10;;;;;;;18.00;9.93;;;17.20;99.90;;;;;;5092058;28;20031;-67
2023/06/12 10:08:37;;;;;;;15.55;9.00;;;17.10;99.90;;;;;;5082411;28;20031;-66
2023/06/12 10:11:06;;;;;;;15.50;9.18;;;17.20;99.90;;;;;;5092656;28;20093;-66
2023/06/12 10:13:35;;;;;;;22.58;10.38;;;17.10;99.90;;;;;;5093232;28;20031;-67
2023/06/12 10:16:02;;;;;;;20.52;10.27;;;17.10;99.90;;;;;;5092113;28;20024;-66
2023/06/12 10:18:31;;;;;;;14.77;10.32;;;17.00;99.90;;;;;;5094103;28;20062;-66
2023/06/12 10:21:00;;;;;;;28.13;11.25;;;16.90;99.90;;;;;;5092114;28;20070;-66
2023/06/12 10:23:29;;;;;;;20.55;9.93;;;17.10;99.90;;;;;;5093567;28;20031;-67
2023/06/12 10:25:57;;;;;;;16.17;9.40;;;17.20;99.90;;;;;;5085852;28;20035;-66
2023/06/12 10:28:24;;;;;;;16.65;9.00;;;17.30;99.90;;;;;;5093111;28;20039;-66
2023/06/12 10:31:20;;;;;;;18.25;9.98;;;17.40;99.90;;;;;;5093412;28;20024;-67
2023/06/12 10:34:10;;;;;;;16.65;10.50;;;17.50;99.90;;;;;;5079005;28;20039;-66
2023/06/12 10:36:41;;;;;;;11.98;9.02;;;17.60;99.90;;;;;;5092675;28;20524;-66
2023/06/12 10:39:19;;;;;;;15.63;9.50;;;17.60;99.90;;;;;;5094206;28;20498;-66
2023/06/12 10:41:54;;;;;;;16.98;9.57;;;17.60;99.90;;;;;;5093987;28;20060;-67
2023/06/12 10:44:36;;;;;;;16.35;9.15;;;17.80;99.90;;;;;;5091693;28;20032;-66
2023/06/12 10:47:03;;;;;;;11.65;7.72;;;17.70;99.90;;;;;;5089032;28;20032;-66
2023/06/12 10:49:30;;;;;;;16.73;8.70;;;17.50;99.90;;;;;;5093939;28;20039;-66
2023/06/12 10:51:58;;;;;;;11.48;8.35;;;17.70;99.90;;;;;;5095601;28;20032;-66
2023/06/12 10:54:25;;;;;;;11.20;9.52;;;17.70;99.90;;;;;;5097960;28;20101;-66
2023/06/12 10:57:05;;;;;;;12.02;9.48;;;17.80;99.90;;;;;;5096707;28;20543;-66
2023/06/12 10:59:37;;;;;;;13.00;11.30;;;18.00;99.90;;;;;;5094765;28;20046;-66
2023/06/12 11:02:04;;;;;;;15.43;10.05;;;17.80;99.90;;;;;;5095843;28;20092;-66
2023/06/12 11:04:39;;;;;;;14.07;10.80;;;18.10;99.90;;;;;;5097059;28;20032;-67
2023/06/12 11:07:06;;;;;;;14.13;9.98;;;18.20;99.90;;;;;;5095856;28;20216;-67
2023/06/12 11:09:40;;;;;;;12.40;10.15;;;18.40;99.90;;;;;;5096582;28;20432;-66
2023/06/12 11:12:10;;;;;;;20.88;9.80;;;18.40;99.90;;;;;;5097165;28;20063;-67
2023/06/12 11:14:36;;;;;;;14.07;10.18;;;18.30;99.90;;;;;;5097039;28;20024;-66
2023/06/12 11:17:02;;;;;;;16.92;11.73;;;18.40;99.90;;;;;;5089820;28;20023;-66
2023/06/12 11:19:28;;;;;;;10.98;9.00;;;18.50;99.90;;;;;;5096741;28;20040;-66
2023/06/12 11:21:56;;;;;;;10.82;9.45;;;18.60;99.90;;;;;;5096187;28;20114;-66
2023/06/12 11:24:23;;;;;;;12.80;9.48;;;18.60;99.90;;;;;;5096735;28;20186;-67
2023/06/12 11:26:50;;;;;;;13.07;10.35;;;18.40;99.90;;;;;;5094846;28;20026;-66
2023/06/12 11:29:17;;;;;;;14.07;9.90;;;18.50;99.90;;;;;;5095854;28;20144;-66
2023/06/12 11:31:58;;;;;;;14.20;12.07;;;18.70;99.90;;;;;;5097158;28;20085;-66
2023/06/12 11:34:31;;;;;;;11.98;10.80;;;18.80;99.90;;;;;;5096977;28;20027;-67
2023/06/12 11:36:57;;;;;;;11.43;10.00;;;18.60;99.90;;;;;;5097117;28;20048;-66
2023/06/12 11:39:24;;;;;;;14.48;9.98;;;18.70;99.90;;;;;;5094069;28;20043;-67
2023/06/12 11:41:50;;;;;;;15.75;11.05;;;18.40;99.90;;;;;;5096684;28;20035;-67
2023/06/12 11:44:17;;;;;;;14.00;10.45;;;18.60;99.90;;;;;;5096875;28;20024;-67
2023/06/12 11:46:47;;;;;;;15.45;11.07;;;18.80;99.90;;;;;;5096612;28;20093;-66
2023/06/12 11:49:31;;;;;;;12.50;10.63;;;18.90;99.90;;;;;;5094754;28;20546;-67
2023/06/12 11:52:01;;;;;;;15.40;11.15;;;19.00;99.90;;;;;;5094234;28;20444;-67
2023/06/12 11:54:30;;;;;;;16.70;11.43;;;18.80;99.90;;;;;;5096499;28;20036;-67
2023/06/12 11:56:56;;;;;;;19.45;12.60;;;18.60;99.90;;;;;;5095156;28;20055;-67
2023/06/12 11:59:25;;;;;;;16.60;11.13;;;18.50;99.90;;;;;;5095606;28;20040;-67
2023/06/12 12:01:52;;;;;;;13.23;10.80;;;18.60;99.90;;;;;;5096124;28;20046;-67
2023/06/12 12:04:18;;;;;;;19.60;10.93;;;18.80;99.90;;;;;;5094061;28;20032;-67
2023/06/12 12:06:51;;;;;;;14.88;9.93;;;18.60;99.90;;;;;;5093575;28;20016;-67
2023/06/12 12:09:24;;;;;;;11.23;9.77;;;18.50;99.90;;;;;;5093837;28;20120;-67
2023/06/12 12:11:50;;;;;;;16.38;10.35;;;18.70;99.90;;;;;;5093245;28;20028;-67
2023/06/12 12:14:16;;;;;;;18.38;13.10;;;18.80;99.90;;;;;;5094770;28;20040;-67
2023/06/12 12:16:43;;;;;;;19.30;12.02;;;18.70;99.90;;;;;;5093987;28;20020;-66
2023/06/12 12:19:29;;;;;;;17.98;12.07;;;18.80;99.90;;;;;;5092107;28;20103;-66
2023/06/12 12:21:58;;;;;;;19.17;12.30;;;19.00;99.90;;;;;;5094912;28;20031;-66
2023/06/12 12:24:24;;;;;;;16.65;11.05;;;19.20;99.90;;;;;;5094832;28;20378;-66
2023/06/12 12:26:52;;;;;;;23.27;12.00;;;19.30;99.90;;;;;;5094598;28;20047;-67
2023/06/12 12:29:22;;;;;;;26.05;11.45;;;19.30;99.90;;;;;;5094755;28;20088;-66
2023/06/12 12:31:48;;;;;;;17.70;10.45;;;19.30;99.90;;;;;;5095416;28;20027;-66
2023/06/12 12:34:14;;;;;;;25.05;12.43;;;19.20;99.90;;;;;;5094927;28;20539;-66
2023/06/12 12:36:40;;;;;;;19.55;10.40;;;19.20;99.90;;;;;;5095120;28;20531;-66
2023/06/12 12:39:06;;;;;;;24.23;11.38;;;19.30;99.90;;;;;;5095283;28;20129;-66
2023/06/12 12:41:35;;;;;;;16.75;9.95;;;19.20;99.90;;;;;;5094153;28;20067;-66
2023/06/12 12:44:01;;;;;;;29.33;11.77;;;19.30;99.90;;;;;;5090360;28;20447;-66
2023/06/12 12:46:27;;;;;;;30.67;10.50;;;19.50;99.90;;;;;;5093903;28;20115;-67
2023/06/12 12:48:53;;;;;;;40.90;13.52;;;19.50;99.90;;;;;;5093895;28;20031;-67